• Join FlightAware (Why Join?)
  • Login
  • US Flag 
03:47AM EST


 

Airport Tracker/Info


-or-


 

Live Flight TrackerFlight Track Log ✈ GCR6532 ✈ 19-Jun-2014 ✈ ZSLY / LYI - ZYTL / DLC

Flight Track Log - Related Links

Times and Time Zones

All times are in EDT time to prevent confusion due to time zone crossing. See the GCR6532 flight status page for this flight to view local times or setup timezone preferences in your user account.

Time Position Orientation Groundspeed Altitude Reporting Facility
EDT Latitude Longitude Course Direction KTS MPH feet Rate Location/Type
06:33AM 35.6384 118.8601 32° Northeast  Level Estimated
06:34AM 35.7579 118.9515 32° Northeast  Level Estimated
06:35AM 35.8772 119.0432 32° Northeast  Level Estimated
06:36AM 35.9808 119.1230 32° Northeast  Level Estimated
06:37AM 36.0844 119.2031 32° Northeast  Level Estimated
06:38AM 36.1879 119.2833 32° Northeast  Level Estimated
06:39AM 36.2914 119.3638 32° Northeast  Level Estimated
06:40AM 36.3948 119.4445 32° Northeast  Level Estimated
06:41AM 36.4981 119.5254 32° Northeast  Level Estimated
06:42AM 36.6014 119.6065 32° Northeast  Level Estimated
06:43AM 36.7047 119.6878 32° Northeast  Level Estimated
06:44AM 36.8078 119.7694 32° Northeast  Level Estimated
06:45AM 36.9110 119.8511 32° Northeast  Level Estimated
06:46AM 37.0140 119.9331 32° Northeast  Level Estimated
06:47AM 37.1171 120.0153 32° Northeast  Level Estimated
06:48AM 37.2200 120.0978 33° Northeast  Level Estimated
06:49AM 37.3229 120.1804 33° Northeast  Level Estimated
06:50AM 37.4258 120.2633 33° Northeast  Level Estimated
06:51AM 37.5285 120.3465 33° Northeast  Level Estimated
06:52AM 37.6313 120.4298 33° Northeast  Level Estimated
06:53AM 37.7339 120.5134 33° Northeast  Level Estimated
06:54AM 37.8365 120.5972 33° Northeast  Level Estimated
06:55AM 37.9391 120.6812 33° Northeast  Level Estimated
06:56AM 38.0416 120.7655 33° Northeast  Level Estimated
06:57AM 38.1440 120.8500 33° Northeast  Level Estimated
06:58AM 38.2464 120.9348 33° Northeast  Level Estimated
06:59AM 38.3487 121.0198 33° Northeast  Level Estimated
07:00AM 38.4509 121.1050 33° Northeast  Level Estimated
07:01AM 38.5531 121.1905 33° Northeast  Level Estimated
07:02AM 38.6552 121.2762 33° Northeast  Level Estimated
07:03AM 38.7573 121.3621 33° Northeast  Level Estimated
07:04AM 38.8593 121.4483 33° Northeast  Level Estimated
07:05AM 38.9612 121.5348 33° Northeast  Level Estimated
07:06AM 38.9657 121.5386 33° Northeast  Level Estimated
07:07AM 38.9657 121.5386 North  Level Estimated
07:08AM 38.9657 121.5386 North  Level Estimated
07:09AM 38.9657 121.5386 North  Level Estimated
07:10AM 38.9657 121.5386 North  Level Estimated
07:11AM 38.9657 121.5386 North  Level Estimated
07:12AM 38.9657 121.5386 North  Level Estimated
07:13AM 38.9657 121.5386 North  Level Estimated
07:14AM 38.9657 121.5386 North  Level Estimated
07:15AM 38.9657 121.5386 North  Level Estimated
07:16AM 38.9657 121.5386 North  Level Estimated
07:17AM 38.9657 121.5386 North  Level Estimated
07:18AM 38.9657 121.5386 North  Level Estimated
07:19AM 38.9657 121.5386 North  Level Estimated
07:20AM 38.9657 121.5386 North  Level Estimated
07:21AM 38.9657 121.5386 North  Level Estimated
07:22AM 38.9657 121.5386 North  Level Estimated
07:23AM 38.9657 121.5386 North  Level Estimated
07:24AM 38.9657 121.5386 North  Level Estimated
07:25AM 38.9657 121.5386 North  Level Estimated
07:26AM 38.9657 121.5386 North  Level Estimated
07:27AM 38.9657 121.5386 North  Level Estimated